Aeroporto :







RITROVATECI SU...

 
LOGIN :

Iscrizione | Disclaimer

   EN    FR    IT 

 









Sommario :    VFR   VFR Marginale   IFR   IFR Intensivo   IFR Molto Intensivo
Visibilità : 
Base nubi : 
>= 8 km
>= 3000ft
5 / 8 km
1000 / 3000 ft
1500m / 5 km
500 / 1000 ft
800 / 1500m
200 / 500 ft
< 800m
< 200 ft
Simboli :   Temporali  Nebbia  Neve Forte  Precipitazioni Forti  Vento > 20 kt






- Altitudine del aeroporto : 20 ft
- Codice IATA : BON


TNCB - Flamingo

ULTIMO METAR :
  • 230455Z AUTO 09014KT 9999 FEW017/// SCT022/// 29/25 Q1011

METARs OBSOLETI :
  • 230355Z AUTO 10011KT 070V130 9999 NSC 29/25 Q1011
  • 230255Z AUTO 10012KT 070V130 9999 NSC 29/25 Q1012

TAF TAF TNCB
Valido dal 23 a 06 ore il 24 a 12 ore UTC


230424Z 2306/2412 09016KT 9999 SCT020
PROB40
TEMPO 2406/2412 6000 SHRA SCT018CB
FIR TNCF / America del Nord



MetMap, La meteo Aeronautica in un colpo d'occhio ! - Copyright ORBIFLY Dicembre 2007 - Disclaimer

ORBIFLY MET'MAP TEAM :

Programmazione e sviluppo : Alexandra Zaïnal
Concezione : Baudouin d'Aumeries
Aiuto per la programmazione : Marc-Olivier Méhu
Supporto tecnico e logistico : Manuel Goepfert
Aiuto per la traduzione : Arnaldo La Scala

Contatto : metmap@orbifly.com




FONTI E CREDITI :

   NOAA